sensor_id;sensor_type;location;lat;lon;timestamp;P1;durP1;ratioP1;P2;durP2;ratioP2
8480;SDS011;4277;51.354;6.740;2023-11-19T00:02:10;8.20;;;5.50;;
8480;SDS011;4277;51.354;6.740;2023-11-19T00:04:37;8.03;;;5.37;;
8480;SDS011;4277;51.354;6.740;2023-11-19T00:07:06;6.77;;;5.40;;
8480;SDS011;4277;51.354;6.740;2023-11-19T00:09:33;7.27;;;5.30;;
8480;SDS011;4277;51.354;6.740;2023-11-19T00:12:01;7.43;;;5.13;;
8480;SDS011;4277;51.354;6.740;2023-11-19T00:14:27;8.00;;;5.60;;
8480;SDS011;4277;51.354;6.740;2023-11-19T00:16:54;5.27;;;4.60;;
8480;SDS011;4277;51.354;6.740;2023-11-19T00:19:20;6.20;;;4.90;;
8480;SDS011;4277;51.354;6.740;2023-11-19T00:21:46;5.70;;;4.67;;
8480;SDS011;4277;51.354;6.740;2023-11-19T00:24:12;5.40;;;4.90;;
8480;SDS011;4277;51.354;6.740;2023-11-19T00:26:41;5.97;;;4.40;;
8480;SDS011;4277;51.354;6.740;2023-11-19T00:29:07;6.07;;;4.70;;
8480;SDS011;4277;51.354;6.740;2023-11-19T00:31:33;8.20;;;5.00;;
8480;SDS011;4277;51.354;6.740;2023-11-19T00:33:59;6.20;;;5.03;;
8480;SDS011;4277;51.354;6.740;2023-11-19T00:36:26;6.43;;;5.53;;
8480;SDS011;4277;51.354;6.740;2023-11-19T00:38:53;5.37;;;4.87;;
8480;SDS011;4277;51.354;6.740;2023-11-19T00:41:19;8.00;;;5.37;;
8480;SDS011;4277;51.354;6.740;2023-11-19T00:43:45;5.90;;;5.40;;
8480;SDS011;4277;51.354;6.740;2023-11-19T00:46:11;7.63;;;5.80;;
8480;SDS011;4277;51.354;6.740;2023-11-19T00:48:38;7.43;;;5.60;;
8480;SDS011;4277;51.354;6.740;2023-11-19T00:51:04;7.20;;;6.20;;
8480;SDS011;4277;51.354;6.740;2023-11-19T00:53:31;6.33;;;5.63;;
8480;SDS011;4277;51.354;6.740;2023-11-19T00:56:00;8.43;;;6.20;;
8480;SDS011;4277;51.354;6.740;2023-11-19T00:58:26;6.37;;;5.80;;
8480;SDS011;4277;51.354;6.740;2023-11-19T01:00:52;8.43;;;5.70;;
8480;SDS011;4277;51.354;6.740;2023-11-19T01:03:18;5.80;;;5.30;;
8480;SDS011;4277;51.354;6.740;2023-11-19T01:05:44;6.90;;;5.73;;
8480;SDS011;4277;51.354;6.740;2023-11-19T01:08:12;6.23;;;5.40;;
8480;SDS011;4277;51.354;6.740;2023-11-19T01:10:38;9.47;;;5.23;;
8480;SDS011;4277;51.354;6.740;2023-11-19T01:13:03;5.10;;;4.60;;
8480;SDS011;4277;51.354;6.740;2023-11-19T01:15:31;5.73;;;4.57;;
8480;SDS011;4277;51.354;6.740;2023-11-19T01:17:57;5.63;;;4.20;;
8480;SDS011;4277;51.354;6.740;2023-11-19T01:20:23;5.33;;;4.23;;
8480;SDS011;4277;51.354;6.740;2023-11-19T01:22:49;4.23;;;3.83;;
8480;SDS011;4277;51.354;6.740;2023-11-19T01:25:15;6.53;;;4.23;;
8480;SDS011;4277;51.354;6.740;2023-11-19T01:27:41;4.47;;;4.07;;
8480;SDS011;4277;51.354;6.740;2023-11-19T01:30:07;4.47;;;3.90;;
8480;SDS011;4277;51.354;6.740;2023-11-19T01:32:39;4.90;;;3.80;;
8480;SDS011;4277;51.354;6.740;2023-11-19T01:35:06;4.00;;;3.60;;
8480;SDS011;4277;51.354;6.740;2023-11-19T01:37:33;4.17;;;3.70;;
8480;SDS011;4277;51.354;6.740;2023-11-19T01:40:02;5.47;;;3.50;;
8480;SDS011;4277;51.354;6.740;2023-11-19T01:42:29;3.87;;;3.47;;
8480;SDS011;4277;51.354;6.740;2023-11-19T01:44:59;9.10;;;3.97;;
8480;SDS011;4277;51.354;6.740;2023-11-19T01:47:25;4.07;;;3.43;;
8480;SDS011;4277;51.354;6.740;2023-11-19T01:49:52;4.70;;;3.50;;
8480;SDS011;4277;51.354;6.740;2023-11-19T01:52:18;4.83;;;3.43;;
8480;SDS011;4277;51.354;6.740;2023-11-19T01:54:45;5.50;;;3.33;;
8480;SDS011;4277;51.354;6.740;2023-11-19T01:57:12;4.53;;;3.40;;
8480;SDS011;4277;51.354;6.740;2023-11-19T01:59:38;5.63;;;3.40;;
8480;SDS011;4277;51.354;6.740;2023-11-19T02:02:05;3.47;;;3.17;;
8480;SDS011;4277;51.354;6.740;2023-11-19T02:04:31;4.33;;;2.97;;
8480;SDS011;4277;51.354;6.740;2023-11-19T02:06:58;5.20;;;3.33;;
8480;SDS011;4277;51.354;6.740;2023-11-19T02:09:24;6.70;;;3.30;;
8480;SDS011;4277;51.354;6.740;2023-11-19T02:11:50;6.60;;;2.83;;
8480;SDS011;4277;51.354;6.740;2023-11-19T02:14:19;6.57;;;3.07;;
8480;SDS011;4277;51.354;6.740;2023-11-19T02:16:47;7.73;;;3.23;;
8480;SDS011;4277;51.354;6.740;2023-11-19T02:19:14;6.90;;;2.93;;
8480;SDS011;4277;51.354;6.740;2023-11-19T02:21:40;6.60;;;2.80;;
8480;SDS011;4277;51.354;6.740;2023-11-19T02:24:07;5.67;;;2.57;;
8480;SDS011;4277;51.354;6.740;2023-11-19T02:29:00;7.87;;;2.87;;
8480;SDS011;4277;51.354;6.740;2023-11-19T02:31:26;8.17;;;2.93;;
8480;SDS011;4277;51.354;6.740;2023-11-19T02:33:52;6.63;;;3.03;;
8480;SDS011;4277;51.354;6.740;2023-11-19T02:36:18;7.13;;;2.80;;
8480;SDS011;4277;51.354;6.740;2023-11-19T02:38:44;8.00;;;2.73;;
8480;SDS011;4277;51.354;6.740;2023-11-19T02:41:10;9.33;;;3.20;;
8480;SDS011;4277;51.354;6.740;2023-11-19T02:43:36;10.13;;;3.53;;
8480;SDS011;4277;51.354;6.740;2023-11-19T02:46:04;8.47;;;3.30;;
8480;SDS011;4277;51.354;6.740;2023-11-19T02:48:33;9.47;;;3.20;;
8480;SDS011;4277;51.354;6.740;2023-11-19T02:51:03;6.50;;;3.37;;
8480;SDS011;4277;51.354;6.740;2023-11-19T02:53:32;11.97;;;3.30;;
8480;SDS011;4277;51.354;6.740;2023-11-19T02:55:58;10.03;;;3.17;;
8480;SDS011;4277;51.354;6.740;2023-11-19T02:58:31;7.57;;;3.30;;
8480;SDS011;4277;51.354;6.740;2023-11-19T03:00:57;13.20;;;3.63;;
8480;SDS011;4277;51.354;6.740;2023-11-19T03:03:24;9.40;;;3.60;;
8480;SDS011;4277;51.354;6.740;2023-11-19T03:05:55;10.47;;;3.80;;
8480;SDS011;4277;51.354;6.740;2023-11-19T03:08:21;11.43;;;3.20;;
8480;SDS011;4277;51.354;6.740;2023-11-19T03:10:47;14.17;;;3.87;;
8480;SDS011;4277;51.354;6.740;2023-11-19T03:13:14;14.80;;;3.70;;
8480;SDS011;4277;51.354;6.740;2023-11-19T03:15:40;11.83;;;4.23;;
8480;SDS011;4277;51.354;6.740;2023-11-19T03:18:06;15.33;;;4.10;;
8480;SDS011;4277;51.354;6.740;2023-11-19T03:20:32;13.30;;;4.27;;
8480;SDS011;4277;51.354;6.740;2023-11-19T03:22:58;8.73;;;3.77;;
8480;SDS011;4277;51.354;6.740;2023-11-19T03:25:26;21.53;;;5.30;;
8480;SDS011;4277;51.354;6.740;2023-11-19T03:27:58;14.13;;;5.20;;
8480;SDS011;4277;51.354;6.740;2023-11-19T03:30:24;14.97;;;5.20;;
8480;SDS011;4277;51.354;6.740;2023-11-19T03:32:50;17.80;;;5.40;;
8480;SDS011;4277;51.354;6.740;2023-11-19T03:35:16;12.97;;;4.87;;
8480;SDS011;4277;51.354;6.740;2023-11-19T03:37:42;18.80;;;4.57;;
8480;SDS011;4277;51.354;6.740;2023-11-19T03:40:08;14.60;;;4.07;;
8480;SDS011;4277;51.354;6.740;2023-11-19T03:42:35;11.67;;;3.77;;
8480;SDS011;4277;51.354;6.740;2023-11-19T03:45:01;13.93;;;4.53;;
8480;SDS011;4277;51.354;6.740;2023-11-19T03:47:29;18.27;;;5.40;;
8480;SDS011;4277;51.354;6.740;2023-11-19T03:49:55;17.30;;;5.33;;
8480;SDS011;4277;51.354;6.740;2023-11-19T03:52:21;17.90;;;5.17;;
8480;SDS011;4277;51.354;6.740;2023-11-19T03:54:47;19.17;;;5.23;;
8480;SDS011;4277;51.354;6.740;2023-11-19T03:57:13;16.70;;;4.30;;
8480;SDS011;4277;51.354;6.740;2023-11-19T03:59:40;20.30;;;5.33;;
8480;SDS011;4277;51.354;6.740;2023-11-19T04:02:06;17.70;;;4.00;;
8480;SDS011;4277;51.354;6.740;2023-11-19T04:04:32;17.70;;;4.20;;
8480;SDS011;4277;51.354;6.740;2023-11-19T04:07:00;20.87;;;4.23;;
8480;SDS011;4277;51.354;6.740;2023-11-19T04:09:27;14.63;;;3.90;;
8480;SDS011;4277;51.354;6.740;2023-11-19T04:11:53;17.43;;;4.20;;
8480;SDS011;4277;51.354;6.740;2023-11-19T04:14:19;16.17;;;4.03;;
8480;SDS011;4277;51.354;6.740;2023-11-19T04:16:45;16.10;;;4.30;;
8480;SDS011;4277;51.354;6.740;2023-11-19T04:19:11;22.53;;;4.57;;
8480;SDS011;4277;51.354;6.740;2023-11-19T04:21:40;17.17;;;4.20;;
8480;SDS011;4277;51.354;6.740;2023-11-19T04:24:07;21.97;;;4.27;;
8480;SDS011;4277;51.354;6.740;2023-11-19T04:26:33;18.70;;;4.17;;
8480;SDS011;4277;51.354;6.740;2023-11-19T04:28:59;20.30;;;4.37;;
8480;SDS011;4277;51.354;6.740;2023-11-19T04:31:31;23.20;;;5.20;;
8480;SDS011;4277;51.354;6.740;2023-11-19T04:33:57;23.23;;;4.40;;
8480;SDS011;4277;51.354;6.740;2023-11-19T04:36:25;23.90;;;5.60;;
8480;SDS011;4277;51.354;6.740;2023-11-19T04:38:51;23.00;;;5.00;;
8480;SDS011;4277;51.354;6.740;2023-11-19T04:41:17;21.03;;;4.93;;
8480;SDS011;4277;51.354;6.740;2023-11-19T04:43:43;21.30;;;5.20;;
8480;SDS011;4277;51.354;6.740;2023-11-19T04:46:09;26.43;;;5.17;;
8480;SDS011;4277;51.354;6.740;2023-11-19T04:48:35;18.53;;;4.10;;
8480;SDS011;4277;51.354;6.740;2023-11-19T04:51:01;29.83;;;5.23;;
8480;SDS011;4277;51.354;6.740;2023-11-19T04:53:30;19.33;;;4.60;;
8480;SDS011;4277;51.354;6.740;2023-11-19T04:55:56;21.53;;;5.87;;
8480;SDS011;4277;51.354;6.740;2023-11-19T04:58:22;23.87;;;5.30;;
8480;SDS011;4277;51.354;6.740;2023-11-19T05:00:48;26.00;;;5.30;;
8480;SDS011;4277;51.354;6.740;2023-11-19T05:03:14;20.37;;;4.50;;
8480;SDS011;4277;51.354;6.740;2023-11-19T05:05:40;19.47;;;4.43;;
8480;SDS011;4277;51.354;6.740;2023-11-19T05:08:06;21.90;;;5.07;;
8480;SDS011;4277;51.354;6.740;2023-11-19T05:10:32;27.60;;;5.27;;
8480;SDS011;4277;51.354;6.740;2023-11-19T05:12:58;23.53;;;4.90;;
8480;SDS011;4277;51.354;6.740;2023-11-19T05:15:24;21.63;;;5.40;;
8480;SDS011;4277;51.354;6.740;2023-11-19T05:17:50;23.50;;;5.50;;
8480;SDS011;4277;51.354;6.740;2023-11-19T05:20:16;25.33;;;6.73;;
8480;SDS011;4277;51.354;6.740;2023-11-19T05:22:42;29.83;;;6.97;;
8480;SDS011;4277;51.354;6.740;2023-11-19T05:25:08;23.37;;;6.07;;
8480;SDS011;4277;51.354;6.740;2023-11-19T05:27:35;22.10;;;5.30;;
8480;SDS011;4277;51.354;6.740;2023-11-19T05:30:02;20.87;;;4.93;;
8480;SDS011;4277;51.354;6.740;2023-11-19T05:32:28;21.27;;;4.87;;
8480;SDS011;4277;51.354;6.740;2023-11-19T05:34:54;21.13;;;5.20;;
8480;SDS011;4277;51.354;6.740;2023-11-19T05:37:20;24.00;;;5.10;;
8480;SDS011;4277;51.354;6.740;2023-11-19T05:39:46;21.90;;;4.67;;
8480;SDS011;4277;51.354;6.740;2023-11-19T05:42:12;21.93;;;4.87;;
8480;SDS011;4277;51.354;6.740;2023-11-19T05:44:38;24.27;;;4.60;;
8480;SDS011;4277;51.354;6.740;2023-11-19T05:47:04;21.63;;;5.20;;
8480;SDS011;4277;51.354;6.740;2023-11-19T05:49:30;25.13;;;5.20;;
8480;SDS011;4277;51.354;6.740;2023-11-19T05:51:56;24.57;;;4.67;;
8480;SDS011;4277;51.354;6.740;2023-11-19T05:54:22;21.53;;;4.30;;
8480;SDS011;4277;51.354;6.740;2023-11-19T05:56:48;23.47;;;4.37;;
8480;SDS011;4277;51.354;6.740;2023-11-19T05:59:14;27.67;;;5.33;;
8480;SDS011;4277;51.354;6.740;2023-11-19T06:01:43;26.93;;;5.77;;
8480;SDS011;4277;51.354;6.740;2023-11-19T06:04:09;24.40;;;5.23;;
8480;SDS011;4277;51.354;6.740;2023-11-19T06:06:35;26.17;;;5.43;;
8480;SDS011;4277;51.354;6.740;2023-11-19T06:09:02;23.97;;;4.97;;
8480;SDS011;4277;51.354;6.740;2023-11-19T06:11:28;22.33;;;5.03;;
8480;SDS011;4277;51.354;6.740;2023-11-19T06:13:54;20.53;;;4.87;;
8480;SDS011;4277;51.354;6.740;2023-11-19T06:16:21;29.53;;;4.60;;
8480;SDS011;4277;51.354;6.740;2023-11-19T06:18:47;21.60;;;4.43;;
8480;SDS011;4277;51.354;6.740;2023-11-19T06:21:13;22.93;;;4.13;;
8480;SDS011;4277;51.354;6.740;2023-11-19T06:23:39;23.87;;;4.27;;
8480;SDS011;4277;51.354;6.740;2023-11-19T06:26:05;22.93;;;4.27;;
8480;SDS011;4277;51.354;6.740;2023-11-19T06:28:31;22.23;;;4.40;;
8480;SDS011;4277;51.354;6.740;2023-11-19T06:30:57;21.50;;;4.37;;
8480;SDS011;4277;51.354;6.740;2023-11-19T06:33:24;25.13;;;5.00;;
8480;SDS011;4277;51.354;6.740;2023-11-19T06:35:50;23.97;;;4.80;;
8480;SDS011;4277;51.354;6.740;2023-11-19T06:38:16;22.30;;;4.80;;
8480;SDS011;4277;51.354;6.740;2023-11-19T06:40:42;24.13;;;5.43;;
8480;SDS011;4277;51.354;6.740;2023-11-19T06:43:08;21.00;;;4.83;;
8480;SDS011;4277;51.354;6.740;2023-11-19T06:45:34;21.57;;;4.80;;
8480;SDS011;4277;51.354;6.740;2023-11-19T06:48:01;28.73;;;4.40;;
8480;SDS011;4277;51.354;6.740;2023-11-19T06:50:31;18.67;;;4.70;;
8480;SDS011;4277;51.354;6.740;2023-11-19T06:52:57;19.67;;;4.30;;
8480;SDS011;4277;51.354;6.740;2023-11-19T06:55:23;28.27;;;5.17;;
8480;SDS011;4277;51.354;6.740;2023-11-19T06:57:49;19.67;;;4.80;;
8480;SDS011;4277;51.354;6.740;2023-11-19T07:00:15;21.97;;;4.70;;
8480;SDS011;4277;51.354;6.740;2023-11-19T07:02:41;17.57;;;4.63;;
8480;SDS011;4277;51.354;6.740;2023-11-19T07:05:09;20.53;;;4.50;;
8480;SDS011;4277;51.354;6.740;2023-11-19T07:07:37;22.70;;;5.13;;
8480;SDS011;4277;51.354;6.740;2023-11-19T07:10:03;23.97;;;5.00;;
8480;SDS011;4277;51.354;6.740;2023-11-19T07:12:29;23.93;;;4.40;;
8480;SDS011;4277;51.354;6.740;2023-11-19T07:14:56;31.03;;;5.37;;
8480;SDS011;4277;51.354;6.740;2023-11-19T07:17:22;26.90;;;5.70;;
8480;SDS011;4277;51.354;6.740;2023-11-19T07:19:49;23.73;;;4.30;;
8480;SDS011;4277;51.354;6.740;2023-11-19T07:22:16;22.80;;;4.70;;
8480;SDS011;4277;51.354;6.740;2023-11-19T07:24:42;22.80;;;4.30;;
8480;SDS011;4277;51.354;6.740;2023-11-19T07:27:08;23.83;;;4.47;;
8480;SDS011;4277;51.354;6.740;2023-11-19T07:29:34;21.27;;;4.37;;
8480;SDS011;4277;51.354;6.740;2023-11-19T07:32:01;27.20;;;4.83;;
8480;SDS011;4277;51.354;6.740;2023-11-19T07:34:27;20.77;;;3.80;;
8480;SDS011;4277;51.354;6.740;2023-11-19T07:36:54;20.77;;;4.10;;
8480;SDS011;4277;51.354;6.740;2023-11-19T07:39:24;21.73;;;4.40;;
8480;SDS011;4277;51.354;6.740;2023-11-19T07:41:50;23.07;;;4.33;;
8480;SDS011;4277;51.354;6.740;2023-11-19T07:44:16;25.17;;;4.70;;
8480;SDS011;4277;51.354;6.740;2023-11-19T07:46:42;26.17;;;4.43;;
8480;SDS011;4277;51.354;6.740;2023-11-19T07:49:09;23.37;;;4.40;;
8480;SDS011;4277;51.354;6.740;2023-11-19T07:51:35;22.97;;;4.53;;
8480;SDS011;4277;51.354;6.740;2023-11-19T07:54:01;25.07;;;4.33;;
8480;SDS011;4277;51.354;6.740;2023-11-19T07:56:29;23.90;;;4.77;;
8480;SDS011;4277;51.354;6.740;2023-11-19T07:58:55;22.10;;;4.40;;
8480;SDS011;4277;51.354;6.740;2023-11-19T08:01:21;26.37;;;4.37;;
8480;SDS011;4277;51.354;6.740;2023-11-19T08:03:48;25.43;;;4.87;;
8480;SDS011;4277;51.354;6.740;2023-11-19T08:06:14;25.90;;;5.00;;
8480;SDS011;4277;51.354;6.740;2023-11-19T08:08:40;15.60;;;4.37;;
8480;SDS011;4277;51.354;6.740;2023-11-19T08:11:06;26.40;;;5.10;;
8480;SDS011;4277;51.354;6.740;2023-11-19T08:13:32;27.30;;;5.00;;
8480;SDS011;4277;51.354;6.740;2023-11-19T08:15:58;23.33;;;4.73;;
8480;SDS011;4277;51.354;6.740;2023-11-19T08:18:24;26.27;;;4.40;;
8480;SDS011;4277;51.354;6.740;2023-11-19T08:20:50;24.23;;;4.67;;
8480;SDS011;4277;51.354;6.740;2023-11-19T08:23:18;27.53;;;4.50;;
8480;SDS011;4277;51.354;6.740;2023-11-19T08:25:45;22.37;;;4.27;;
8480;SDS011;4277;51.354;6.740;2023-11-19T08:28:11;22.67;;;4.90;;
8480;SDS011;4277;51.354;6.740;2023-11-19T08:30:37;26.37;;;5.27;;
8480;SDS011;4277;51.354;6.740;2023-11-19T08:33:03;26.40;;;5.13;;
8480;SDS011;4277;51.354;6.740;2023-11-19T08:35:31;27.00;;;5.00;;
8480;SDS011;4277;51.354;6.740;2023-11-19T08:37:57;23.20;;;4.47;;
8480;SDS011;4277;51.354;6.740;2023-11-19T08:40:24;25.20;;;5.23;;
8480;SDS011;4277;51.354;6.740;2023-11-19T08:42:53;19.57;;;5.07;;
8480;SDS011;4277;51.354;6.740;2023-11-19T08:45:19;28.37;;;4.60;;
8480;SDS011;4277;51.354;6.740;2023-11-19T08:47:45;23.60;;;4.50;;
8480;SDS011;4277;51.354;6.740;2023-11-19T08:50:11;27.67;;;4.77;;
8480;SDS011;4277;51.354;6.740;2023-11-19T08:52:37;21.73;;;4.10;;
8480;SDS011;4277;51.354;6.740;2023-11-19T08:55:04;20.30;;;4.53;;
8480;SDS011;4277;51.354;6.740;2023-11-19T08:57:30;22.33;;;4.37;;
8480;SDS011;4277;51.354;6.740;2023-11-19T08:59:57;15.60;;;3.80;;
8480;SDS011;4277;51.354;6.740;2023-11-19T09:02:24;15.03;;;3.47;;
8480;SDS011;4277;51.354;6.740;2023-11-19T09:04:50;24.57;;;4.60;;
8480;SDS011;4277;51.354;6.740;2023-11-19T09:07:16;19.77;;;4.33;;
8480;SDS011;4277;51.354;6.740;2023-11-19T09:09:42;26.13;;;4.60;;
8480;SDS011;4277;51.354;6.740;2023-11-19T09:12:08;22.63;;;4.23;;
8480;SDS011;4277;51.354;6.740;2023-11-19T09:14:34;27.93;;;5.07;;
8480;SDS011;4277;51.354;6.740;2023-11-19T09:17:00;23.43;;;4.50;;
8480;SDS011;4277;51.354;6.740;2023-11-19T09:19:26;26.53;;;4.57;;
8480;SDS011;4277;51.354;6.740;2023-11-19T09:21:55;19.03;;;4.43;;
8480;SDS011;4277;51.354;6.740;2023-11-19T09:24:21;23.27;;;4.70;;
8480;SDS011;4277;51.354;6.740;2023-11-19T09:26:47;24.57;;;4.90;;
8480;SDS011;4277;51.354;6.740;2023-11-19T09:29:13;23.27;;;4.73;;
8480;SDS011;4277;51.354;6.740;2023-11-19T09:31:39;22.10;;;4.17;;
8480;SDS011;4277;51.354;6.740;2023-11-19T09:34:05;25.20;;;5.07;;
8480;SDS011;4277;51.354;6.740;2023-11-19T09:36:31;24.90;;;4.93;;
8480;SDS011;4277;51.354;6.740;2023-11-19T09:38:57;18.43;;;4.97;;
8480;SDS011;4277;51.354;6.740;2023-11-19T09:41:25;20.77;;;4.70;;
8480;SDS011;4277;51.354;6.740;2023-11-19T09:43:53;23.90;;;4.63;;
8480;SDS011;4277;51.354;6.740;2023-11-19T09:46:19;21.87;;;4.87;;
8480;SDS011;4277;51.354;6.740;2023-11-19T09:48:45;19.47;;;4.10;;
8480;SDS011;4277;51.354;6.740;2023-11-19T09:51:13;21.37;;;5.00;;
8480;SDS011;4277;51.354;6.740;2023-11-19T09:53:39;28.50;;;4.90;;
8480;SDS011;4277;51.354;6.740;2023-11-19T09:56:06;23.80;;;4.20;;
8480;SDS011;4277;51.354;6.740;2023-11-19T09:58:33;21.97;;;5.03;;
8480;SDS011;4277;51.354;6.740;2023-11-19T10:00:59;22.97;;;4.73;;
8480;SDS011;4277;51.354;6.740;2023-11-19T10:03:27;23.37;;;4.67;;
8480;SDS011;4277;51.354;6.740;2023-11-19T10:05:57;21.97;;;4.70;;
8480;SDS011;4277;51.354;6.740;2023-11-19T10:08:23;21.87;;;4.50;;
8480;SDS011;4277;51.354;6.740;2023-11-19T10:10:49;23.60;;;4.37;;
8480;SDS011;4277;51.354;6.740;2023-11-19T10:13:15;21.53;;;4.90;;
8480;SDS011;4277;51.354;6.740;2023-11-19T10:15:41;24.87;;;5.13;;
8480;SDS011;4277;51.354;6.740;2023-11-19T10:18:07;19.57;;;4.43;;
8480;SDS011;4277;51.354;6.740;2023-11-19T10:20:36;21.90;;;4.63;;
8480;SDS011;4277;51.354;6.740;2023-11-19T10:23:02;24.83;;;4.57;;
8480;SDS011;4277;51.354;6.740;2023-11-19T10:25:28;20.50;;;4.60;;
8480;SDS011;4277;51.354;6.740;2023-11-19T10:27:55;18.80;;;4.47;;
8480;SDS011;4277;51.354;6.740;2023-11-19T10:30:23;22.17;;;5.13;;
8480;SDS011;4277;51.354;6.740;2023-11-19T10:35:55;20.77;;;4.23;;
8480;SDS011;4277;51.354;6.740;2023-11-19T10:38:22;18.83;;;3.63;;
8480;SDS011;4277;51.354;6.740;2023-11-19T10:40:48;21.03;;;4.17;;
8480;SDS011;4277;51.354;6.740;2023-11-19T10:43:15;18.57;;;4.17;;
8480;SDS011;4277;51.354;6.740;2023-11-19T10:45:42;19.03;;;4.23;;
8480;SDS011;4277;51.354;6.740;2023-11-19T10:48:08;21.00;;;4.20;;
8480;SDS011;4277;51.354;6.740;2023-11-19T10:50:35;17.43;;;3.93;;
8480;SDS011;4277;51.354;6.740;2023-11-19T10:53:01;21.43;;;5.00;;
8480;SDS011;4277;51.354;6.740;2023-11-19T10:55:37;21.20;;;4.13;;
8480;SDS011;4277;51.354;6.740;2023-11-19T10:58:07;19.57;;;4.70;;
8480;SDS011;4277;51.354;6.740;2023-11-19T11:03:00;18.70;;;3.83;;
8480;SDS011;4277;51.354;6.740;2023-11-19T11:05:28;18.67;;;3.93;;
8480;SDS011;4277;51.354;6.740;2023-11-19T11:07:55;20.60;;;4.23;;
8480;SDS011;4277;51.354;6.740;2023-11-19T11:10:23;31.17;;;5.27;;
8480;SDS011;4277;51.354;6.740;2023-11-19T11:12:51;20.33;;;3.50;;
8480;SDS011;4277;51.354;6.740;2023-11-19T11:15:23;18.67;;;3.70;;
8480;SDS011;4277;51.354;6.740;2023-11-19T11:17:50;16.70;;;3.70;;
8480;SDS011;4277;51.354;6.740;2023-11-19T11:20:17;17.17;;;4.07;;
8480;SDS011;4277;51.354;6.740;2023-11-19T11:22:52;18.00;;;3.67;;
8480;SDS011;4277;51.354;6.740;2023-11-19T11:27:58;20.10;;;4.40;;
8480;SDS011;4277;51.354;6.740;2023-11-19T11:30:35;22.20;;;4.70;;
8480;SDS011;4277;51.354;6.740;2023-11-19T11:35:51;13.73;;;3.40;;
8480;SDS011;4277;51.354;6.740;2023-11-19T11:38:21;15.40;;;3.83;;
8480;SDS011;4277;51.354;6.740;2023-11-19T11:46:53;19.27;;;3.70;;
8480;SDS011;4277;51.354;6.740;2023-11-19T11:48:57;16.37;;;3.87;;
8480;SDS011;4277;51.354;6.740;2023-11-19T11:52:10;16.53;;;3.80;;
8480;SDS011;4277;51.354;6.740;2023-11-19T11:56:37;17.30;;;3.83;;
8480;SDS011;4277;51.354;6.740;2023-11-19T11:59:07;16.70;;;3.00;;
8480;SDS011;4277;51.354;6.740;2023-11-19T12:01:33;17.30;;;3.60;;
8480;SDS011;4277;51.354;6.740;2023-11-19T12:04:00;16.37;;;3.07;;
8480;SDS011;4277;51.354;6.740;2023-11-19T12:06:27;12.47;;;3.30;;
8480;SDS011;4277;51.354;6.740;2023-11-19T12:08:57;17.23;;;3.30;;
8480;SDS011;4277;51.354;6.740;2023-11-19T12:11:25;15.90;;;3.83;;
8480;SDS011;4277;51.354;6.740;2023-11-19T12:13:52;19.00;;;3.53;;
8480;SDS011;4277;51.354;6.740;2023-11-19T12:16:21;13.80;;;3.23;;
8480;SDS011;4277;51.354;6.740;2023-11-19T12:18:47;15.90;;;3.50;;
8480;SDS011;4277;51.354;6.740;2023-11-19T12:21:27;14.17;;;3.07;;
8480;SDS011;4277;51.354;6.740;2023-11-19T12:23:53;16.37;;;3.70;;
8480;SDS011;4277;51.354;6.740;2023-11-19T12:26:32;16.07;;;3.37;;
8480;SDS011;4277;51.354;6.740;2023-11-19T12:28:59;14.80;;;3.60;;
8480;SDS011;4277;51.354;6.740;2023-11-19T12:31:25;14.27;;;3.10;;
8480;SDS011;4277;51.354;6.740;2023-11-19T12:33:51;13.00;;;3.47;;
8480;SDS011;4277;51.354;6.740;2023-11-19T12:36:18;11.70;;;2.90;;
8480;SDS011;4277;51.354;6.740;2023-11-19T12:38:44;14.77;;;3.67;;
8480;SDS011;4277;51.354;6.740;2023-11-19T12:41:11;15.50;;;3.40;;
8480;SDS011;4277;51.354;6.740;2023-11-19T12:43:38;13.20;;;3.60;;
8480;SDS011;4277;51.354;6.740;2023-11-19T12:46:17;11.23;;;3.23;;
8480;SDS011;4277;51.354;6.740;2023-11-19T12:48:44;13.13;;;3.00;;
8480;SDS011;4277;51.354;6.740;2023-11-19T12:51:10;15.97;;;3.40;;
8480;SDS011;4277;51.354;6.740;2023-11-19T12:53:51;13.50;;;3.33;;
8480;SDS011;4277;51.354;6.740;2023-11-19T12:56:20;13.87;;;3.23;;
8480;SDS011;4277;51.354;6.740;2023-11-19T12:58:46;15.73;;;3.10;;
8480;SDS011;4277;51.354;6.740;2023-11-19T13:01:17;13.20;;;3.07;;
8480;SDS011;4277;51.354;6.740;2023-11-19T13:03:46;16.33;;;3.20;;
8480;SDS011;4277;51.354;6.740;2023-11-19T13:06:14;13.50;;;3.17;;
8480;SDS011;4277;51.354;6.740;2023-11-19T13:08:47;14.87;;;3.43;;
8480;SDS011;4277;51.354;6.740;2023-11-19T13:11:15;18.03;;;3.47;;
8480;SDS011;4277;51.354;6.740;2023-11-19T13:14:02;16.57;;;3.70;;
8480;SDS011;4277;51.354;6.740;2023-11-19T13:16:35;18.77;;;3.80;;
8480;SDS011;4277;51.354;6.740;2023-11-19T13:19:02;18.30;;;3.60;;
8480;SDS011;4277;51.354;6.740;2023-11-19T13:21:28;15.83;;;3.30;;
8480;SDS011;4277;51.354;6.740;2023-11-19T13:23:57;18.10;;;3.70;;
8480;SDS011;4277;51.354;6.740;2023-11-19T13:26:23;15.50;;;3.60;;
8480;SDS011;4277;51.354;6.740;2023-11-19T13:28:49;17.83;;;3.77;;
8480;SDS011;4277;51.354;6.740;2023-11-19T13:31:15;16.53;;;3.80;;
8480;SDS011;4277;51.354;6.740;2023-11-19T13:33:41;13.27;;;3.33;;
8480;SDS011;4277;51.354;6.740;2023-11-19T13:36:08;16.77;;;3.20;;
8480;SDS011;4277;51.354;6.740;2023-11-19T13:38:34;12.43;;;3.27;;
8480;SDS011;4277;51.354;6.740;2023-11-19T13:41:01;14.97;;;3.50;;
8480;SDS011;4277;51.354;6.740;2023-11-19T13:43:27;15.83;;;3.30;;
8480;SDS011;4277;51.354;6.740;2023-11-19T13:45:53;15.63;;;3.47;;
8480;SDS011;4277;51.354;6.740;2023-11-19T13:48:19;18.33;;;3.33;;
8480;SDS011;4277;51.354;6.740;2023-11-19T13:50:45;17.10;;;3.57;;
8480;SDS011;4277;51.354;6.740;2023-11-19T13:53:11;12.27;;;3.07;;
8480;SDS011;4277;51.354;6.740;2023-11-19T13:55:37;15.63;;;3.33;;
8480;SDS011;4277;51.354;6.740;2023-11-19T13:58:03;15.97;;;3.50;;
8480;SDS011;4277;51.354;6.740;2023-11-19T14:00:29;13.70;;;3.03;;
8480;SDS011;4277;51.354;6.740;2023-11-19T14:02:55;11.23;;;3.03;;
8480;SDS011;4277;51.354;6.740;2023-11-19T14:05:21;16.57;;;3.30;;
8480;SDS011;4277;51.354;6.740;2023-11-19T14:07:48;19.70;;;3.97;;
8480;SDS011;4277;51.354;6.740;2023-11-19T14:10:15;17.30;;;3.50;;
8480;SDS011;4277;51.354;6.740;2023-11-19T14:12:41;13.83;;;3.60;;
8480;SDS011;4277;51.354;6.740;2023-11-19T14:15:08;16.57;;;4.47;;
8480;SDS011;4277;51.354;6.740;2023-11-19T14:17:34;18.90;;;4.13;;
8480;SDS011;4277;51.354;6.740;2023-11-19T14:20:01;16.67;;;3.80;;
8480;SDS011;4277;51.354;6.740;2023-11-19T14:22:29;17.43;;;3.90;;
8480;SDS011;4277;51.354;6.740;2023-11-19T14:24:55;13.30;;;3.13;;
8480;SDS011;4277;51.354;6.740;2023-11-19T14:27:21;12.67;;;3.40;;
8480;SDS011;4277;51.354;6.740;2023-11-19T14:29:47;14.87;;;2.93;;
8480;SDS011;4277;51.354;6.740;2023-11-19T14:32:13;14.47;;;3.27;;
8480;SDS011;4277;51.354;6.740;2023-11-19T14:34:39;15.57;;;3.40;;
8480;SDS011;4277;51.354;6.740;2023-11-19T14:37:05;14.60;;;3.70;;
8480;SDS011;4277;51.354;6.740;2023-11-19T14:39:31;18.10;;;3.87;;
8480;SDS011;4277;51.354;6.740;2023-11-19T14:41:57;15.57;;;3.83;;
8480;SDS011;4277;51.354;6.740;2023-11-19T14:44:26;14.57;;;3.33;;
8480;SDS011;4277;51.354;6.740;2023-11-19T14:46:52;15.07;;;3.73;;
8480;SDS011;4277;51.354;6.740;2023-11-19T14:49:18;14.50;;;3.50;;
8480;SDS011;4277;51.354;6.740;2023-11-19T14:51:44;13.53;;;3.70;;
8480;SDS011;4277;51.354;6.740;2023-11-19T14:54:10;15.50;;;3.90;;
8480;SDS011;4277;51.354;6.740;2023-11-19T14:56:36;16.57;;;4.83;;
8480;SDS011;4277;51.354;6.740;2023-11-19T14:59:03;16.87;;;4.00;;
8480;SDS011;4277;51.354;6.740;2023-11-19T15:01:29;15.00;;;3.70;;
8480;SDS011;4277;51.354;6.740;2023-11-19T15:03:55;14.70;;;3.67;;
8480;SDS011;4277;51.354;6.740;2023-11-19T15:06:25;17.20;;;3.77;;
8480;SDS011;4277;51.354;6.740;2023-11-19T15:08:52;15.60;;;3.63;;
8480;SDS011;4277;51.354;6.740;2023-11-19T15:11:19;13.77;;;2.97;;
8480;SDS011;4277;51.354;6.740;2023-11-19T15:13:46;12.90;;;3.63;;
8480;SDS011;4277;51.354;6.740;2023-11-19T15:16:12;16.53;;;4.00;;
8480;SDS011;4277;51.354;6.740;2023-11-19T15:18:39;13.77;;;3.43;;
8480;SDS011;4277;51.354;6.740;2023-11-19T15:21:05;16.27;;;3.70;;
8480;SDS011;4277;51.354;6.740;2023-11-19T15:23:31;17.00;;;3.67;;
8480;SDS011;4277;51.354;6.740;2023-11-19T15:25:57;16.60;;;3.50;;